Time;durP1;ratioP1;P1;durP2;ratioP2;P2;SDS_P1;SDS_P2;PMS_P1;PMS_P2;Temp;Humidity;BMP_temperature;BMP_pressure;BME280_temperature;BME280_humidity;BME280_pressure;Samples;Min_cycle;Max_cycle;Signal;HPM_P1;HPM_P2
2023/04/10 00:01:34;;;;;;;8.85;6.95;;;;;;;10.26;57.44;99598.84;5033392;28;20025;-87
2023/04/10 00:04:00;;;;;;;11.07;7.68;;;;;;;10.32;56.69;99599.50;5033338;28;20112;-88
2023/04/10 00:06:27;;;;;;;9.93;8.02;;;;;;;10.12;55.54;99596.22;5032921;28;20124;-87
2023/04/10 00:08:52;;;;;;;11.00;7.65;;;;;;;10.08;56.36;99584.91;5032514;28;20033;-88
2023/04/10 00:11:18;;;;;;;12.98;7.97;;;;;;;10.29;55.85;99591.78;5052935;28;20025;-87
2023/04/10 00:13:43;;;;;;;11.77;7.70;;;;;;;10.04;55.94;99578.28;5033244;28;20029;-87
2023/04/10 00:16:10;;;;;;;9.93;6.90;;;;;;;9.93;56.16;99577.81;5035488;28;20021;-87
2023/04/10 00:18:35;;;;;;;10.57;7.25;;;;;;;10.03;57.06;99581.44;5037200;28;20024;-86
2023/04/10 00:21:02;;;;;;;9.65;7.03;;;;;;;9.92;57.74;99575.34;5037208;28;20029;-87
2023/04/10 00:23:30;;;;;;;11.55;8.25;;;;;;;9.73;59.05;99581.25;5035430;28;20103;-87
2023/04/10 00:25:56;;;;;;;9.73;7.80;;;;;;;9.90;57.88;99566.47;5036989;28;20025;-88
2023/04/10 00:28:21;;;;;;;8.68;6.78;;;;;;;9.91;57.91;99559.72;5036790;28;20024;-88
2023/04/10 00:30:47;;;;;;;11.38;7.72;;;;;;;9.81;59.90;99566.47;5034691;28;20025;-88
2023/04/10 00:33:13;;;;;;;12.82;7.35;;;;;;;9.85;58.85;99570.25;5036728;28;20097;-88
2023/04/10 00:35:38;;;;;;;11.02;8.05;;;;;;;9.90;58.86;99570.09;5036706;28;20045;-87
2023/04/10 00:38:04;;;;;;;12.00;8.25;;;;;;;9.95;58.86;99569.09;5036206;28;20565;-87
2023/04/10 00:40:30;;;;;;;14.07;9.35;;;;;;;9.94;58.04;99568.28;5036962;28;20036;-87
2023/04/10 00:42:56;;;;;;;15.13;8.77;;;;;;;9.77;59.47;99562.66;5054527;28;20040;-87
2023/04/10 00:45:21;;;;;;;14.40;9.70;;;;;;;9.83;59.36;99558.56;5056696;28;20024;-87
2023/04/10 00:47:47;;;;;;;15.77;8.98;;;;;;;9.81;58.92;99553.31;5041145;28;20115;-87
2023/04/10 00:50:12;;;;;;;13.45;9.50;;;;;;;9.80;58.85;99548.88;5036626;28;20024;-87
2023/04/10 00:52:38;;;;;;;13.60;9.23;;;;;;;9.78;58.75;99542.78;5036137;28;20025;-87
2023/04/10 00:55:04;;;;;;;16.05;9.85;;;;;;;9.82;59.46;99554.13;5053942;28;20411;-87
2023/04/10 00:57:31;;;;;;;18.77;11.20;;;;;;;9.71;58.97;99556.41;5036202;28;20036;-87
2023/04/10 00:59:57;;;;;;;12.90;9.27;;;;;;;9.58;59.34;99549.84;5035499;28;20024;-87
2023/04/10 01:02:22;;;;;;;14.75;10.43;;;;;;;9.57;59.71;99556.59;5036395;28;20021;-88
2023/04/10 01:04:48;;;;;;;15.43;10.30;;;;;;;9.56;59.59;99546.56;5035566;28;20504;-87
2023/04/10 01:07:44;;;;;;;19.63;10.18;;;;;;;9.59;59.37;99551.50;5035960;28;20392;-87
2023/04/10 01:10:19;;;;;;;12.82;8.93;;;;;;;9.57;59.88;99556.59;5036413;28;20060;-87
2023/04/10 01:12:54;;;;;;;17.98;10.57;;;;;;;9.57;60.31;99552.97;5036204;28;20435;-87
2023/04/10 01:15:25;;;;;;;14.02;10.18;;;;;;;9.49;60.27;99558.22;5034339;28;20020;-87
2023/04/10 01:18:04;;;;;;;17.17;10.48;;;;;;;9.37;60.85;99544.06;5035774;28;20528;-86
2023/04/10 01:20:33;;;;;;;48.63;24.80;;;;;;;9.21;60.78;99550.09;5035051;28;20063;-87
2023/04/10 01:23:26;;;;;;;47.67;26.40;;;;;;;9.21;60.98;99552.06;5035192;28;20112;-87
2023/04/10 01:26:02;;;;;;;28.38;17.55;;;;;;;8.95;61.13;99547.22;5036054;28;20413;-87
2023/04/10 01:28:46;;;;;;;17.20;11.63;;;;;;;8.84;62.33;99543.88;5034955;28;20059;-87
2023/04/10 01:31:17;;;;;;;16.20;11.23;;;;;;;8.89;61.86;99546.53;5052949;28;20025;-87
2023/04/10 01:33:49;;;;;;;17.10;10.55;;;;;;;8.86;62.32;99549.97;5035651;28;20055;-87
2023/04/10 01:36:25;;;;;;;16.67;10.20;;;;;;;8.71;62.62;99545.66;5034960;28;20519;-87
2023/04/10 01:38:53;;;;;;;13.68;8.98;;;;;;;8.71;63.16;99545.66;5035528;28;20099;-87
2023/04/10 01:41:21;;;;;;;16.98;9.80;;;;;;;8.56;63.04;99549.66;5035578;28;20017;-87
2023/04/10 01:43:50;;;;;;;15.48;11.23;;;;;;;8.59;63.15;99548.22;5033922;28;20051;-87
2023/04/10 01:46:18;;;;;;;15.40;11.00;;;;;;;8.50;63.50;99548.97;5048674;28;20105;-87
2023/04/10 01:48:45;;;;;;;16.15;10.00;;;;;;;8.50;63.04;99551.75;5053385;28;20021;-87
2023/04/10 01:51:13;;;;;;;20.02;11.77;;;;;;;8.25;63.73;99545.69;5053338;28;20025;-87
2023/04/10 01:53:40;;;;;;;14.73;10.07;;;;;;;8.34;63.65;99547.72;5035479;28;20016;-87
2023/04/10 01:56:07;;;;;;;16.67;11.90;;;;;;;8.44;63.14;99547.41;5035510;28;20028;-87
2023/04/10 01:58:34;;;;;;;17.52;12.13;;;;;;;8.53;63.29;99539.97;5034553;28;20385;-87
2023/04/10 02:01:00;;;;;;;20.00;13.25;;;;;;;8.66;62.96;99554.97;5035191;28;20021;-87
2023/04/10 02:03:25;;;;;;;22.65;14.60;;;;;;;8.63;62.96;99552.84;5033987;28;20025;-87
2023/04/10 02:05:57;;;;;;;17.42;12.68;;;;;;;8.45;62.64;99554.66;5035174;28;20024;-87
2023/04/10 02:08:33;;;;;;;17.00;12.32;;;;;;;8.17;63.14;99546.44;5035150;28;20045;-87
2023/04/10 02:11:22;;;;;;;17.25;11.70;;;;;;;8.04;64.17;99552.88;5035181;28;20025;-87
2023/04/10 02:13:50;;;;;;;20.38;13.98;;;;;;;8.13;64.22;99545.44;5051906;28;20409;-87
2023/04/10 02:16:18;;;;;;;19.85;13.05;;;;;;;7.97;64.59;99545.81;5035055;28;20150;-87
2023/04/10 02:18:45;;;;;;;19.58;12.27;;;;;;;8.20;64.29;99544.97;5052022;28;20025;-87
2023/04/10 02:21:10;;;;;;;18.92;12.25;;;;;;;8.12;64.16;99552.16;5033883;28;20036;-87
2023/04/10 02:23:36;;;;;;;20.02;12.80;;;;;;;8.27;64.44;99542.59;5034888;28;20029;-87
2023/04/10 02:26:07;;;;;;;21.30;12.07;;;;;;;8.33;63.90;99534.91;5034858;28;20029;-86
2023/04/10 02:28:33;;;;;;;20.52;12.65;;;;;;;8.35;64.26;99547.38;5034569;28;20484;-87
2023/04/10 02:30:58;;;;;;;21.77;14.88;;;;;;;8.28;64.33;99538.66;5052396;28;20039;-87
2023/04/10 02:33:24;;;;;;;22.42;15.20;;;;;;;8.25;64.99;99536.47;5033805;28;20024;-87
2023/04/10 02:35:49;;;;;;;21.58;12.75;;;;;;;8.18;64.74;99534.13;5032384;28;20222;-87
2023/04/10 02:38:15;;;;;;;20.40;13.68;;;;;;;7.87;65.79;99527.38;5034503;28;20492;-88
2023/04/10 02:40:40;;;;;;;21.08;12.55;;;;;;;7.94;66.00;99529.72;5034331;28;20522;-87
2023/04/10 02:43:05;;;;;;;20.77;12.75;;;;;;;7.89;66.65;99535.41;5034359;28;20029;-87
2023/04/10 02:45:32;;;;;;;18.48;10.98;;;;;;;7.75;67.76;99515.97;5034411;28;20112;-87
2023/04/10 02:47:58;;;;;;;19.88;10.88;;;;;;;7.71;66.94;99529.69;5033553;28;20024;-87
2023/04/10 02:50:23;;;;;;;15.40;9.93;;;;;;;7.64;66.44;99532.09;5033619;28;20017;-87
2023/04/10 02:52:48;;;;;;;15.15;10.40;;;;;;;7.73;65.57;99534.94;5034419;28;20048;-88
2023/04/10 02:55:14;;;;;;;16.20;11.23;;;;;;;7.60;65.19;99536.63;5034259;28;20025;-88
2023/04/10 02:57:41;;;;;;;17.77;11.43;;;;;;;7.43;65.14;99526.19;5034397;28;20491;-87
2023/04/10 03:00:08;;;;;;;16.58;11.25;;;;;;;7.52;65.21;99538.19;5034276;28;20052;-87
2023/04/10 03:02:33;;;;;;;14.27;10.48;;;;;;;7.77;65.11;99540.72;5033173;28;20102;-88
2023/04/10 03:05:01;;;;;;;17.30;11.40;;;;;;;7.77;64.80;99529.59;5034062;28;20508;-87
2023/04/10 03:07:26;;;;;;;16.33;11.30;;;;;;;7.80;64.84;99520.59;5033313;28;20498;-88
2023/04/10 03:09:52;;;;;;;20.50;12.15;;;;;;;7.91;64.46;99529.53;5034179;28;20021;-87
2023/04/10 03:12:17;;;;;;;17.98;11.98;;;;;;;7.85;63.98;99514.91;5034185;28;20028;-87
2023/04/10 03:14:43;;;;;;;18.20;12.15;;;;;;;7.95;64.12;99516.63;5033800;28;20470;-87
2023/04/10 03:17:08;;;;;;;20.70;13.35;;;;;;;8.02;63.93;99533.69;5033997;28;20439;-87
2023/04/10 03:19:34;;;;;;;21.05;11.98;;;;;;;7.90;63.94;99528.72;5051606;28;20037;-87
2023/04/10 03:21:59;;;;;;;18.15;12.32;;;;;;;7.89;64.06;99526.22;5034247;28;20040;-87
2023/04/10 03:24:25;;;;;;;20.05;11.82;;;;;;;7.99;64.04;99534.34;5033707;28;20025;-87
2023/04/10 03:26:51;;;;;;;19.95;12.25;;;;;;;8.07;64.53;99524.38;5032833;28;20043;-88
2023/04/10 03:29:17;;;;;;;16.40;11.43;;;;;;;8.07;64.90;99541.09;5033621;28;20024;-87
2023/04/10 03:31:43;;;;;;;21.27;12.23;;;;;;;8.03;64.99;99529.78;5033266;28;20070;-88
2023/04/10 03:34:09;;;;;;;18.58;11.68;;;;;;;8.01;64.80;99532.06;5033351;28;20492;-87
2023/04/10 03:36:34;;;;;;;32.47;15.75;;;;;;;7.99;65.22;99531.56;5033011;28;20029;-86
2023/04/10 03:39:00;;;;;;;40.90;21.73;;;;;;;7.95;65.47;99528.56;5027508;28;20021;-87
2023/04/10 03:41:26;;;;;;;56.58;26.42;;;;;;;7.87;65.71;99534.91;5022503;28;20033;-87
2023/04/10 03:43:51;;;;;;;46.78;25.42;;;;;;;8.00;65.51;99538.75;5013776;28;20033;-87
2023/04/10 03:46:16;;;;;;;48.97;25.27;;;;;;;8.11;65.07;99537.38;5028674;28;20025;-87
2023/04/10 03:48:42;;;;;;;50.00;25.20;;;;;;;8.10;65.49;99530.16;5036798;28;20063;-88
2023/04/10 03:51:07;;;;;;;51.95;26.27;;;;;;;8.06;65.84;99519.97;5039306;28;20115;-86
2023/04/10 03:53:34;;;;;;;64.20;29.50;;;;;;;8.17;66.27;99531.69;5038744;28;20021;-87
2023/04/10 03:56:01;;;;;;;67.03;28.77;;;;;;;8.12;66.37;99530.66;5037903;28;20415;-85
2023/04/10 03:58:27;;;;;;;67.57;27.63;;;;;;;8.10;66.24;99524.59;5040011;28;20089;-86
2023/04/10 04:00:53;;;;;;;45.83;23.02;;;;;;;8.08;65.58;99512.09;5039751;28;20028;-85
2023/04/10 04:03:19;;;;;;;42.63;23.83;;;;;;;8.22;65.77;99515.66;5039227;28;20059;-85
2023/04/10 04:05:44;;;;;;;46.20;24.15;;;;;;;8.35;65.64;99536.22;5057660;28;20060;-85
2023/04/10 04:08:11;;;;;;;54.50;26.08;;;;;;;8.21;66.21;99527.97;5039861;28;20471;-85
2023/04/10 04:10:36;;;;;;;61.90;30.80;;;;;;;8.22;66.41;99524.03;5039669;28;20024;-85
2023/04/10 04:13:02;;;;;;;76.57;31.77;;;;;;;8.27;66.57;99532.25;5038852;28;20036;-85
2023/04/10 04:15:27;;;;;;;75.75;34.30;;;;;;;8.40;66.71;99541.69;5057656;28;20036;-85
2023/04/10 04:17:53;;;;;;;76.60;36.10;;;;;;;8.50;66.30;99546.19;5037970;28;20480;-85
2023/04/10 04:20:18;;;;;;;66.57;34.60;;;;;;;8.60;65.92;99549.84;5055987;28;20036;-85
2023/04/10 04:22:45;;;;;;;66.20;32.65;;;;;;;8.60;65.60;99552.63;5037826;28;20475;-84
2023/04/10 04:25:10;;;;;;;62.00;31.73;;;;;;;8.41;65.29;99526.59;5039675;28;20467;-84
2023/04/10 04:27:36;;;;;;;62.33;35.33;;;;;;;8.52;64.99;99548.66;5039026;28;20029;-85
2023/04/10 04:30:03;;;;;;;79.28;42.28;;;;;;;8.27;65.00;99514.72;5039540;28;20032;-85
2023/04/10 04:32:28;;;;;;;91.25;44.08;;;;;;;8.68;65.00;99546.25;5039274;28;20504;-85
2023/04/10 04:34:54;;;;;;;104.63;52.78;;;;;;;8.75;64.73;99534.66;5039140;28;20048;-85
2023/04/10 04:37:19;;;;;;;67.45;30.30;;;;;;;8.73;64.65;99542.53;5039696;28;20609;-86
2023/04/10 04:39:45;;;;;;;51.92;23.42;;;;;;;8.81;64.74;99539.78;5026304;28;20484;-86
2023/04/10 04:42:10;;;;;;;70.38;37.22;;;;;;;8.73;64.91;99546.16;5047289;28;20044;-85
2023/04/10 04:44:36;;;;;;;79.75;43.53;;;;;;;8.64;64.86;99543.31;5037291;28;20094;-86
2023/04/10 04:47:01;;;;;;;56.70;30.60;;;;;;;8.63;65.44;99546.41;5036259;28;20048;-86
2023/04/10 04:49:27;;;;;;;30.88;15.68;;;;;;;8.57;65.63;99537.38;5037856;28;20037;-85
2023/04/10 04:51:52;;;;;;;26.83;15.00;;;;;;;8.56;66.10;99544.91;5036740;28;20107;-85
2023/04/10 04:54:17;;;;;;;30.55;15.20;;;;;;;8.63;65.68;99538.06;5036465;28;20029;-86
2023/04/10 04:56:43;;;;;;;24.40;16.13;;;;;;;8.68;66.30;99543.47;5028464;28;20457;-85
2023/04/10 04:59:08;;;;;;;30.13;17.60;;;;;;;8.61;65.75;99523.63;5033420;28;20028;-86
2023/04/10 05:01:34;;;;;;;35.20;20.42;;;;;;;8.53;66.90;99548.31;5029719;28;20044;-86
2023/04/10 05:04:00;;;;;;;42.78;23.52;;;;;;;8.47;67.05;99530.06;5033363;28;20099;-84
2023/04/10 05:06:25;;;;;;;35.55;19.55;;;;;;;8.49;67.28;99549.25;5034074;28;20601;-85
2023/04/10 05:08:51;;;;;;;43.67;22.35;;;;;;;8.45;67.71;99537.94;5033426;28;20124;-84
2023/04/10 05:11:17;;;;;;;35.80;19.08;;;;;;;8.42;68.30;99542.19;5032385;28;20025;-86
2023/04/10 05:13:43;;;;;;;37.60;19.45;;;;;;;8.27;68.36;99548.97;5033097;28;20033;-85
2023/04/10 05:16:08;;;;;;;31.15;19.15;;;;;;;8.32;68.64;99552.75;5053211;28;20036;-85
2023/04/10 05:18:34;;;;;;;29.77;18.27;;;;;;;8.37;68.79;99550.66;5041060;28;20029;-85
2023/04/10 05:21:00;;;;;;;35.95;19.85;;;;;;;8.51;68.43;99556.19;5051627;28;20040;-85
2023/04/10 05:23:26;;;;;;;38.65;22.83;;;;;;;8.24;69.42;99563.53;5035356;28;20032;-85
2023/04/10 05:25:51;;;;;;;52.20;22.30;;;;;;;8.10;70.32;99560.81;5035527;28;20039;-85
2023/04/10 05:28:17;;;;;;;44.38;21.15;;;;;;;8.09;71.26;99553.59;5048587;28;20091;-85
2023/04/10 05:30:42;;;;;;;35.65;21.42;;;;;;;8.25;71.12;99561.56;5034134;28;20025;-85
2023/04/10 05:33:08;;;;;;;24.58;15.45;;;;;;;8.29;71.12;99562.59;5031850;28;20024;-85
2023/04/10 05:35:33;;;;;;;22.25;14.10;;;;;;;8.43;70.73;99566.13;5025373;28;20050;-85
2023/04/10 05:37:59;;;;;;;25.92;14.90;;;;;;;8.42;70.58;99569.22;5051175;28;20275;-85
2023/04/10 05:40:25;;;;;;;25.73;15.02;;;;;;;8.47;69.91;99560.75;5031507;28;20069;-85
2023/04/10 05:42:51;;;;;;;25.70;14.55;;;;;;;8.79;69.30;99569.13;5026488;28;20030;-85
2023/04/10 05:45:17;;;;;;;24.83;12.77;;;;;;;8.97;67.82;99556.91;5032132;28;20034;-85
2023/04/10 05:47:43;;;;;;;27.98;14.27;;;;;;;8.92;68.48;99559.00;5032836;28;20025;-85
2023/04/10 05:50:09;;;;;;;29.50;12.93;;;;;;;8.85;68.65;99565.06;5025349;28;20044;-84
2023/04/10 05:52:35;;;;;;;17.63;12.20;;;;;;;8.98;67.55;99569.69;5032521;28;20025;-85
2023/04/10 05:55:00;;;;;;;21.65;12.85;;;;;;;9.08;67.13;99553.81;5030506;28;20550;-86
2023/04/10 05:57:26;;;;;;;20.73;13.90;;;;;;;9.22;66.05;99556.50;5029495;28;20112;-86
2023/04/10 05:59:51;;;;;;;21.48;12.88;;;;;;;9.29;65.34;99559.66;5037854;28;20123;-85
2023/04/10 06:02:17;;;;;;;20.10;12.98;;;;;;;9.18;64.75;99552.72;5021712;28;20037;-85
2023/04/10 06:04:43;;;;;;;15.38;10.82;;;;;;;9.15;64.12;99531.03;5032920;28;20040;-85
2023/04/10 06:07:08;;;;;;;19.77;12.27;;;;;;;9.29;63.49;99564.41;5030748;28;20033;-85
2023/04/10 06:09:34;;;;;;;20.80;13.18;;;;;;;9.14;62.08;99558.13;5031333;28;20037;-86
2023/04/10 06:12:00;;;;;;;17.98;11.50;;;;;;;9.43;62.50;99562.28;5031123;28;20033;-85
2023/04/10 06:14:25;;;;;;;21.70;11.00;;;;;;;9.34;63.08;99559.50;5027147;28;20017;-84
2023/04/10 06:16:51;;;;;;;16.33;9.38;;;;;;;9.17;63.13;99528.72;5031520;28;20547;-87
2023/04/10 06:19:16;;;;;;;16.52;10.18;;;;;;;9.21;63.03;99560.44;5028116;28;20029;-86
2023/04/10 06:21:42;;;;;;;15.40;10.35;;;;;;;9.04;63.91;99525.72;5029422;28;20037;-87
2023/04/10 06:24:07;;;;;;;12.57;9.80;;;;;;;9.17;64.72;99556.63;5031281;28;20104;-87
2023/04/10 06:26:33;;;;;;;18.77;10.88;;;;;;;9.34;64.06;99553.91;5031682;28;20026;-87
2023/04/10 06:28:59;;;;;;;14.88;10.57;;;;;;;9.51;63.55;99552.28;5024447;28;20496;-87
2023/04/10 06:31:24;;;;;;;15.90;10.68;;;;;;;9.78;63.55;99547.56;5033694;28;20025;-87
2023/04/10 06:33:50;;;;;;;15.48;11.05;;;;;;;10.01;64.14;99558.56;5022538;28;20033;-86
2023/04/10 06:36:16;;;;;;;22.42;12.35;;;;;;;10.23;63.14;99541.63;5032553;28;20519;-85
2023/04/10 06:38:42;;;;;;;20.33;13.68;;;;;;;10.18;61.94;99555.78;5033372;28;20107;-87
2023/04/10 06:41:07;;;;;;;23.05;13.45;;;;;;;10.60;60.02;99549.66;5034063;28;20024;-86
2023/04/10 06:43:38;;;;;;;17.30;10.65;;;;;;;10.77;59.71;99559.97;5034109;28;20119;-85
2023/04/10 06:46:04;;;;;;;18.65;10.75;;;;;;;10.67;56.88;99563.13;5027289;28;20056;-86
2023/04/10 06:48:33;;;;;;;14.68;10.10;;;;;;;10.83;55.83;99555.00;5033022;28;20062;-86
2023/04/10 06:51:01;;;;;;;14.55;10.10;;;;;;;11.00;54.92;99561.69;5033190;28;20058;-86
2023/04/10 06:53:27;;;;;;;14.07;9.45;;;;;;;10.78;54.99;99557.97;5027391;28;20108;-86
2023/04/10 06:55:53;;;;;;;17.63;9.48;;;;;;;11.00;53.99;99565.31;5026760;28;20033;-86
2023/04/10 06:58:19;;;;;;;11.00;8.45;;;;;;;10.68;54.47;99564.75;5031295;28;20888;-88
2023/04/10 07:00:45;;;;;;;10.98;7.95;;;;;;;10.92;54.33;99572.59;5031848;28;20024;-86
2023/04/10 07:03:10;;;;;;;14.23;8.88;;;;;;;10.78;54.41;99561.59;5031648;28;20029;-86
2023/04/10 07:05:36;;;;;;;10.77;8.02;;;;;;;10.50;53.78;99550.00;5049834;28;20070;-86
2023/04/10 07:08:01;;;;;;;11.75;8.52;;;;;;;10.88;53.86;99566.00;5030818;28;20064;-86
2023/04/10 07:10:27;;;;;;;12.65;8.77;;;;;;;10.79;53.01;99571.63;5031644;28;20425;-87
2023/04/10 07:12:52;;;;;;;12.05;8.57;;;;;;;10.70;53.71;99570.03;5030593;28;20029;-87
2023/04/10 07:15:18;;;;;;;15.18;10.75;;;;;;;10.93;54.63;99573.41;5031371;28;20087;-86
2023/04/10 07:17:43;;;;;;;17.52;9.20;;;;;;;10.89;53.80;99572.44;5027687;28;20491;-87
2023/04/10 07:20:09;;;;;;;16.05;9.88;;;;;;;10.79;54.13;99556.81;5032041;28;20044;-86
2023/04/10 07:22:35;;;;;;;16.00;9.65;;;;;;;10.55;53.63;99549.00;5050786;28;20064;-87
2023/04/10 07:25:00;;;;;;;11.23;8.15;;;;;;;11.07;53.91;99567.59;5033604;28;20032;-86
2023/04/10 07:27:26;;;;;;;17.75;9.60;;;;;;;11.30;53.17;99570.13;5031042;28;20465;-87
2023/04/10 07:29:54;;;;;;;16.50;10.85;;;;;;;11.44;54.08;99579.09;5033152;28;20120;-85
2023/04/10 07:32:20;;;;;;;16.00;10.13;;;;;;;11.63;52.21;99573.03;5044318;28;20094;-87
2023/04/10 07:34:46;;;;;;;17.83;9.23;;;;;;;11.55;52.93;99571.09;5031455;28;20053;-86
2023/04/10 07:37:11;;;;;;;11.95;8.45;;;;;;;11.60;50.56;99551.31;5044012;28;20507;-87
2023/04/10 07:39:37;;;;;;;13.80;9.23;;;;;;;11.89;50.54;99569.22;5031322;28;20492;-86
2023/04/10 07:42:02;;;;;;;12.70;9.32;;;;;;;12.03;49.45;99559.75;5048785;28;20070;-88
2023/04/10 07:44:28;;;;;;;11.98;8.25;;;;;;;12.06;48.40;99545.03;5032550;28;20033;-86
2023/04/10 07:46:54;;;;;;;15.27;9.15;;;;;;;12.55;46.15;99552.00;5032696;28;20051;-87
2023/04/10 07:49:20;;;;;;;12.25;6.97;;;;;;;12.29;44.41;99555.88;5031840;28;20043;-86
2023/04/10 07:51:45;;;;;;;12.93;7.50;;;;;;;12.26;44.76;99553.78;5032160;28;20029;-88
2023/04/10 07:54:11;;;;;;;11.95;7.55;;;;;;;12.61;46.11;99528.19;5051195;28;20021;-88
2023/04/10 07:56:36;;;;;;;9.77;6.78;;;;;;;12.86;43.69;99547.88;5033748;28;20033;-90
2023/04/10 07:59:02;;;;;;;8.68;6.88;;;;;;;13.23;42.61;99545.06;5034754;28;20028;-86
2023/04/10 08:01:28;;;;;;;10.43;6.70;;;;;;;13.41;42.70;99544.84;5031059;28;20031;-86
2023/04/10 08:03:55;;;;;;;8.23;6.50;;;;;;;13.53;42.06;99555.28;5038378;28;20028;-87
2023/04/10 08:06:20;;;;;;;8.48;6.90;;;;;;;13.75;42.35;99537.06;5032973;28;20108;-87
2023/04/10 08:08:46;;;;;;;8.75;6.70;;;;;;;13.77;42.46;99540.38;5031907;28;20121;-86
2023/04/10 08:11:28;;;;;;;10.68;6.78;;;;;;;13.53;42.74;99547.69;5043997;28;20036;-86
2023/04/10 08:13:55;;;;;;;11.50;8.07;;;;;;;14.00;42.62;99537.84;5031294;28;20021;-86
2023/04/10 08:16:25;;;;;;;16.02;7.63;;;;;;;13.88;42.19;99530.28;5031480;28;20026;-86
2023/04/10 08:18:51;;;;;;;;;;;;;;;13.92;43.91;99538.00;5034572;28;20059;-86
2023/04/10 08:21:18;;;;;;;9.10;6.82;;;;;;;13.81;43.75;99534.84;5031343;28;19964;-85
2023/04/10 08:23:45;;;;;;;7.72;6.38;;;;;;;13.90;43.98;99543.94;5032672;28;20025;-86
2023/04/10 08:26:10;;;;;;;8.45;6.38;;;;;;;13.81;41.24;99544.09;5049327;28;20021;-86
2023/04/10 08:28:36;;;;;;;6.88;5.38;;;;;;;13.58;41.20;99538.19;5025125;28;20044;-85
2023/04/10 08:31:02;;;;;;;8.52;5.93;;;;;;;13.48;41.87;99526.25;5032133;28;20501;-85
2023/04/10 08:33:27;;;;;;;8.23;5.78;;;;;;;13.78;42.14;99527.94;5029942;28;20026;-88
2023/04/10 08:35:53;;;;;;;7.10;5.30;;;;;;;13.80;41.83;99528.41;5032548;28;20642;-87
2023/04/10 08:38:22;;;;;;;13.23;5.13;;;;;;;13.93;43.52;99531.19;5049614;28;20054;-85
2023/04/10 08:40:48;;;;;;;5.72;4.82;;;;;;;13.96;42.37;99519.22;5033641;28;20029;-86
2023/04/10 08:43:13;;;;;;;6.05;4.82;;;;;;;14.21;40.45;99521.94;5035040;28;20027;-86
2023/04/10 08:45:42;;;;;;;5.53;3.85;;;;;;;14.67;38.11;99516.75;5035810;28;20029;-86
2023/04/10 08:48:09;;;;;;;5.70;4.03;;;;;;;14.51;38.65;99513.91;5035923;28;20115;-86
2023/04/10 08:50:40;;;;;;;5.07;4.57;;;;;;;14.64;38.30;99523.13;5035709;28;20415;-86
2023/04/10 08:53:12;;;;;;;5.90;4.95;;;;;;;14.39;39.34;99516.81;5033851;28;20028;-85
2023/04/10 08:55:39;;;;;;;8.73;5.10;;;;;;;14.04;40.45;99515.44;5033572;28;20523;-86
2023/04/10 08:58:05;;;;;;;4.70;3.90;;;;;;;14.01;41.16;99504.91;5035171;28;20493;-85
2023/04/10 09:00:37;;;;;;;5.15;4.50;;;;;;;14.00;41.13;99514.53;5034083;28;20040;-85
2023/04/10 09:03:13;;;;;;;6.20;4.07;;;;;;;14.00;41.24;99503.28;5034580;28;20451;-85
2023/04/10 09:05:39;;;;;;;6.53;5.78;;;;;;;14.15;40.95;99499.69;5035992;28;20095;-88
2023/04/10 09:08:07;;;;;;;6.68;5.20;;;;;;;13.89;39.94;99511.41;5049943;28;20491;-86
2023/04/10 09:10:33;;;;;;;9.30;5.05;;;;;;;13.73;39.86;99497.25;5028862;28;20120;-87
2023/04/10 09:12:59;;;;;;;6.93;4.22;;;;;;;13.88;40.87;99495.69;5034071;28;20100;-88
2023/04/10 09:15:24;;;;;;;5.38;4.18;;;;;;;13.84;39.89;99492.78;5036582;28;20094;-88
2023/04/10 09:17:57;;;;;;;8.57;3.97;;;;;;;13.93;39.34;99489.00;5036024;28;20071;-88
2023/04/10 09:20:24;;;;;;;5.68;3.95;;;;;;;14.01;38.58;99482.44;5048458;28;20511;-89
2023/04/10 09:22:50;;;;;;;7.13;3.90;;;;;;;14.00;38.60;99472.34;5054129;28;20033;-88
2023/04/10 09:25:39;;;;;;;9.05;4.38;;;;;;;14.07;40.75;99480.97;5036151;28;20114;-88
2023/04/10 09:28:08;;;;;;;5.63;3.65;;;;;;;13.96;40.82;99460.16;5034522;28;20511;-89
2023/04/10 09:30:39;;;;;;;5.60;3.95;;;;;;;14.04;39.25;99481.69;5035462;28;20040;-85
2023/04/10 09:33:26;;;;;;;6.70;3.90;;;;;;;14.03;39.08;99482.88;5049093;28;20415;-85
2023/04/10 09:35:52;;;;;;;5.00;4.25;;;;;;;14.00;39.05;99475.97;5030038;28;20428;-87
2023/04/10 09:38:19;;;;;;;5.65;4.30;;;;;;;14.12;39.18;99477.09;5036824;28;20041;-85
2023/04/10 09:40:47;;;;;;;6.63;4.28;;;;;;;14.20;38.95;99472.47;5021103;28;20040;-87
2023/04/10 09:43:21;;;;;;;4.45;3.85;;;;;;;14.32;38.01;99466.78;5045259;28;20562;-86
2023/04/10 09:45:52;;;;;;;6.22;3.50;;;;;;;14.20;37.97;99464.03;5026447;28;20515;-86
2023/04/10 09:48:18;;;;;;;;;;;;;;;14.69;38.30;99466.53;5030183;28;20052;-85
2023/04/10 09:50:43;;;;;;;7.07;4.30;;;;;;;14.85;38.15;99446.06;5029659;28;19952;-85
2023/04/10 09:53:15;;;;;;;6.13;3.75;;;;;;;14.94;39.52;99466.38;5032709;28;20112;-86
2023/04/10 09:55:41;;;;;;;8.13;3.40;;;;;;;14.79;38.69;99464.41;5030673;28;20028;-86
2023/04/10 09:58:08;;;;;;;6.03;4.70;;;;;;;14.78;38.00;99462.75;5027560;28;20028;-86
2023/04/10 10:00:44;;;;;;;6.80;4.50;;;;;;;14.88;37.66;99457.38;5027570;28;20032;-87
2023/04/10 10:03:16;;;;;;;6.57;3.90;;;;;;;14.54;38.72;99448.50;5026909;28;20063;-88
2023/04/10 10:05:45;;;;;;;3.47;3.17;;;;;;;14.24;37.93;99443.28;5033917;28;20498;-88
2023/04/10 10:08:12;;;;;;;5.68;4.18;;;;;;;14.25;38.70;99442.09;5032092;28;20027;-88
2023/04/10 10:10:49;;;;;;;4.68;3.67;;;;;;;14.22;39.25;99453.25;5028612;28;20025;-87
2023/04/10 10:13:31;;;;;;;5.05;3.88;;;;;;;14.25;39.86;99456.16;5025991;28;20067;-87
2023/04/10 10:15:56;;;;;;;7.00;3.90;;;;;;;14.18;40.09;99448.34;5022662;28;20507;-85
2023/04/10 10:18:29;;;;;;;4.80;3.78;;;;;;;13.94;40.91;99443.69;5031544;28;20120;-87
2023/04/10 10:20:55;;;;;;;6.80;3.38;;;;;;;13.84;40.98;99439.38;5024696;28;20029;-87
2023/04/10 10:23:22;;;;;;;9.25;4.70;;;;;;;13.90;41.43;99437.13;5031701;28;20028;-87
2023/04/10 10:25:48;;;;;;;6.47;3.97;;;;;;;13.73;41.40;99438.25;5019920;28;20033;-85
2023/04/10 10:28:15;;;;;;;10.35;3.47;;;;;;;13.64;42.25;99437.59;5026770;28;20028;-86
2023/04/10 10:30:41;;;;;;;5.55;3.60;;;;;;;13.80;42.46;99451.69;5046331;28;20507;-86
2023/04/10 10:33:07;;;;;;;4.88;3.80;;;;;;;13.82;42.34;99444.53;5030691;28;20021;-86
2023/04/10 10:35:36;;;;;;;5.38;3.50;;;;;;;13.77;41.29;99450.41;5032219;28;20053;-87
2023/04/10 10:38:03;;;;;;;6.88;3.85;;;;;;;13.82;41.91;99441.72;5029315;28;20520;-87
2023/04/10 10:40:32;;;;;;;6.30;4.43;;;;;;;13.80;41.62;99443.25;5034748;28;20124;-86
2023/04/10 10:43:21;;;;;;;4.30;3.33;;;;;;;13.64;42.24;99444.00;5052229;28;20460;-85
2023/04/10 10:45:54;;;;;;;6.70;4.13;;;;;;;13.57;42.48;99436.19;5050503;28;20499;-85
2023/04/10 10:48:20;;;;;;;7.38;4.03;;;;;;;13.47;42.59;99417.84;5030173;28;20028;-86
2023/04/10 10:50:53;;;;;;;6.43;3.75;;;;;;;13.48;43.76;99441.13;5035924;28;20028;-86
2023/04/10 10:53:39;;;;;;;4.57;3.83;;;;;;;13.36;43.39;99446.75;5038055;28;20078;-85
2023/04/10 10:56:22;;;;;;;5.30;4.25;;;;;;;13.24;43.99;99444.81;5034602;28;20492;-87
2023/04/10 10:58:49;;;;;;;4.82;3.33;;;;;;;13.16;43.44;99438.94;5049247;28;20032;-85
2023/04/10 11:01:15;;;;;;;7.60;3.72;;;;;;;13.16;43.56;99438.94;5049455;28;20029;-85
2023/04/10 11:03:44;;;;;;;5.40;4.32;;;;;;;12.97;43.97;99441.53;5050420;28;20487;-84
2023/04/10 11:06:20;;;;;;;6.60;4.20;;;;;;;13.08;45.09;99425.84;5032750;28;20530;-85
2023/04/10 11:08:54;;;;;;;5.93;4.20;;;;;;;13.13;44.89;99434.03;5028306;28;20022;-85
2023/04/10 11:11:22;;;;;;;9.30;4.40;;;;;;;13.14;46.56;99434.84;5023974;28;20492;-86
2023/04/10 11:13:50;;;;;;;4.25;3.60;;;;;;;13.13;46.71;99438.84;5027717;28;20020;-83
2023/04/10 11:16:17;;;;;;;7.13;4.10;;;;;;;12.97;48.13;99444.34;5033556;28;20044;-86
2023/04/10 11:18:46;;;;;;;6.60;4.57;;;;;;;12.86;49.61;99438.38;5029560;28;20727;-85
2023/04/10 11:21:16;;;;;;;8.63;4.72;;;;;;;12.89;48.09;99440.50;5035667;28;20017;-84
2023/04/10 11:23:56;;;;;;;5.30;4.57;;;;;;;13.08;50.40;99447.50;5038387;28;20080;-86
2023/04/10 11:29:01;;;;;;;6.05;4.75;;;;;;;12.92;50.42;99446.22;5041769;28;20036;-86
2023/04/10 11:31:27;;;;;;;6.28;4.57;;;;;;;12.90;50.33;99431.72;5045007;28;20025;-84
2023/04/10 11:33:59;;;;;;;9.32;4.95;;;;;;;12.82;51.00;99440.28;5019624;28;20013;-85